Accueil
METAR-TAF:

METAR-TAF

Aéroports :

Aéroport d'Anvers

Anvers, Belgique

latitude: 51-12N, longitude: 004-28E, altitude: 12 m

Observation

Le bulletin a été fait il y a 37 minutes, à 19:20 UTC
Vent 4 kt de nord, variant entre nord-ouest et nord/nord-est
Température 12°C
Humidité 76%
Pression 1027 hPa
Visibilité 10 km ou plus
Nuages épars à une hauteur de 4200 ft

METAR: EBAW 191920Z 35004KT 320V030 9999 SCT042 12/08 Q1027 NOSIG

Heure: 21:57 (19:57 UTC)

Prévision

Le bulletin a été fait il y a 2 heures et 47 minutes, à 17:10 UTC
Prévision valable du 19 à 18 UTC au 20 à 03 UTC
Vent 5 kt de nord
Visibilité 10 km ou plus
Quelques nuages à une hauteur de 2500 ft
Nuages épars à une hauteur de 4000 ft

TAF: EBAW 191710Z 1918/2003 01005KT 9999 FEW025 SCT040

Observations et prévisions météorologiques de plus de 4000 aéroports (messages METAR et TAF).

Les stations disponibles sont représentées par des disques jaunes et rouges sur la carte.

Passer la souris dessus pour voir le nom de la station.

Cliquer dessus pour voir les observations et prévisions météorologiques.

Pour changer de carte: cliquez sur les boutons verts avec une croix noire pour zoomer, sur le bouton vert avec un tiret pour effectuer un zoom arrière, ou sur les flèches vertes pour les cartes adjacentes.


METAR-TAF: